sensor_id;sensor_type;location;lat;lon;timestamp;P1;durP1;ratioP1;P2;durP2;ratioP2
13202;SDS011;6666;51.626;7.530;2023-07-20T00:02:26;6.15;;;4.20;;
13202;SDS011;6666;51.626;7.530;2023-07-20T00:04:55;8.90;;;4.30;;
13202;SDS011;6666;51.626;7.530;2023-07-20T00:07:23;8.00;;;4.47;;
13202;SDS011;6666;51.626;7.530;2023-07-20T00:09:53;7.90;;;4.28;;
13202;SDS011;6666;51.626;7.530;2023-07-20T00:12:21;6.22;;;4.68;;
13202;SDS011;6666;51.626;7.530;2023-07-20T00:14:49;6.80;;;3.90;;
13202;SDS011;6666;51.626;7.530;2023-07-20T00:17:20;7.15;;;3.97;;
13202;SDS011;6666;51.626;7.530;2023-07-20T00:19:48;6.70;;;3.90;;
13202;SDS011;6666;51.626;7.530;2023-07-20T00:22:16;11.10;;;4.13;;
13202;SDS011;6666;51.626;7.530;2023-07-20T00:24:44;6.40;;;4.18;;
13202;SDS011;6666;51.626;7.530;2023-07-20T00:27:14;6.10;;;4.68;;
13202;SDS011;6666;51.626;7.530;2023-07-20T00:29:42;6.70;;;4.22;;
13202;SDS011;6666;51.626;7.530;2023-07-20T00:32:10;5.18;;;4.20;;
13202;SDS011;6666;51.626;7.530;2023-07-20T00:34:38;5.50;;;3.83;;
13202;SDS011;6666;51.626;7.530;2023-07-20T00:37:07;8.48;;;3.95;;
13202;SDS011;6666;51.626;7.530;2023-07-20T00:39:36;8.07;;;4.38;;
13202;SDS011;6666;51.626;7.530;2023-07-20T00:42:05;6.53;;;4.13;;
13202;SDS011;6666;51.626;7.530;2023-07-20T00:44:35;6.90;;;4.25;;
13202;SDS011;6666;51.626;7.530;2023-07-20T00:47:03;6.80;;;4.43;;
13202;SDS011;6666;51.626;7.530;2023-07-20T00:49:32;6.47;;;4.22;;
13202;SDS011;6666;51.626;7.530;2023-07-20T00:52:00;5.68;;;4.20;;
13202;SDS011;6666;51.626;7.530;2023-07-20T00:54:30;7.57;;;4.10;;
13202;SDS011;6666;51.626;7.530;2023-07-20T00:56:58;5.23;;;4.20;;
13202;SDS011;6666;51.626;7.530;2023-07-20T00:59:28;7.15;;;4.47;;
13202;SDS011;6666;51.626;7.530;2023-07-20T01:01:58;11.35;;;4.90;;
13202;SDS011;6666;51.626;7.530;2023-07-20T01:04:26;5.63;;;4.25;;
13202;SDS011;6666;51.626;7.530;2023-07-20T01:06:57;6.38;;;4.50;;
13202;SDS011;6666;51.626;7.530;2023-07-20T01:09:31;7.15;;;4.28;;
13202;SDS011;6666;51.626;7.530;2023-07-20T01:12:07;5.95;;;3.78;;
13202;SDS011;6666;51.626;7.530;2023-07-20T01:14:39;5.45;;;4.00;;
13202;SDS011;6666;51.626;7.530;2023-07-20T01:17:10;5.70;;;4.00;;
13202;SDS011;6666;51.626;7.530;2023-07-20T01:19:38;7.10;;;4.30;;
13202;SDS011;6666;51.626;7.530;2023-07-20T01:22:09;7.28;;;4.18;;
13202;SDS011;6666;51.626;7.530;2023-07-20T01:24:50;4.50;;;4.07;;
13202;SDS011;6666;51.626;7.530;2023-07-20T01:27:36;4.70;;;3.80;;
13202;SDS011;6666;51.626;7.530;2023-07-20T01:30:43;4.85;;;3.70;;
13202;SDS011;6666;51.626;7.530;2023-07-20T01:33:19;5.70;;;4.23;;
13202;SDS011;6666;51.626;7.530;2023-07-20T01:35:50;5.85;;;3.60;;
13202;SDS011;6666;51.626;7.530;2023-07-20T01:38:20;6.43;;;4.18;;
13202;SDS011;6666;51.626;7.530;2023-07-20T01:40:51;7.70;;;3.60;;
13202;SDS011;6666;51.626;7.530;2023-07-20T01:43:19;5.50;;;3.78;;
13202;SDS011;6666;51.626;7.530;2023-07-20T01:45:47;6.22;;;3.33;;
13202;SDS011;6666;51.626;7.530;2023-07-20T01:48:16;4.65;;;3.75;;
13202;SDS011;6666;51.626;7.530;2023-07-20T01:50:45;9.18;;;3.80;;
13202;SDS011;6666;51.626;7.530;2023-07-20T01:53:14;6.32;;;3.60;;
13202;SDS011;6666;51.626;7.530;2023-07-20T01:55:42;6.00;;;3.30;;
13202;SDS011;6666;51.626;7.530;2023-07-20T01:58:12;6.33;;;3.70;;
13202;SDS011;6666;51.626;7.530;2023-07-20T02:00:41;5.88;;;4.20;;
13202;SDS011;6666;51.626;7.530;2023-07-20T02:03:09;4.72;;;3.72;;
13202;SDS011;6666;51.626;7.530;2023-07-20T02:05:38;5.43;;;3.90;;
13202;SDS011;6666;51.626;7.530;2023-07-20T02:08:10;5.32;;;3.80;;
13202;SDS011;6666;51.626;7.530;2023-07-20T02:10:38;10.30;;;4.57;;
13202;SDS011;6666;51.626;7.530;2023-07-20T02:13:06;5.22;;;3.75;;
13202;SDS011;6666;51.626;7.530;2023-07-20T02:15:34;4.30;;;3.90;;
13202;SDS011;6666;51.626;7.530;2023-07-20T02:18:03;6.35;;;3.50;;
13202;SDS011;6666;51.626;7.530;2023-07-20T02:20:33;7.00;;;4.20;;
13202;SDS011;6666;51.626;7.530;2023-07-20T02:23:01;8.80;;;3.75;;
13202;SDS011;6666;51.626;7.530;2023-07-20T02:25:31;5.78;;;3.60;;
13202;SDS011;6666;51.626;7.530;2023-07-20T02:27:59;8.25;;;3.60;;
13202;SDS011;6666;51.626;7.530;2023-07-20T02:30:27;7.53;;;3.77;;
13202;SDS011;6666;51.626;7.530;2023-07-20T02:32:55;7.75;;;3.92;;
13202;SDS011;6666;51.626;7.530;2023-07-20T02:35:25;7.95;;;4.60;;
13202;SDS011;6666;51.626;7.530;2023-07-20T02:37:53;9.50;;;5.32;;
13202;SDS011;6666;51.626;7.530;2023-07-20T02:40:22;8.13;;;5.18;;
13202;SDS011;6666;51.626;7.530;2023-07-20T02:42:51;10.02;;;5.07;;
13202;SDS011;6666;51.626;7.530;2023-07-20T02:45:19;9.50;;;5.47;;
13202;SDS011;6666;51.626;7.530;2023-07-20T02:47:47;10.35;;;5.85;;
13202;SDS011;6666;51.626;7.530;2023-07-20T02:50:17;11.85;;;6.65;;
13202;SDS011;6666;51.626;7.530;2023-07-20T02:52:45;9.27;;;6.40;;
13202;SDS011;6666;51.626;7.530;2023-07-20T02:55:13;12.55;;;7.45;;
13202;SDS011;6666;51.626;7.530;2023-07-20T02:57:42;11.57;;;6.72;;
13202;SDS011;6666;51.626;7.530;2023-07-20T03:00:12;13.15;;;7.47;;
13202;SDS011;6666;51.626;7.530;2023-07-20T03:02:42;15.82;;;6.75;;
13202;SDS011;6666;51.626;7.530;2023-07-20T03:05:14;12.32;;;7.20;;
13202;SDS011;6666;51.626;7.530;2023-07-20T03:07:43;11.13;;;7.30;;
13202;SDS011;6666;51.626;7.530;2023-07-20T03:10:11;12.45;;;7.03;;
13202;SDS011;6666;51.626;7.530;2023-07-20T03:12:39;14.85;;;6.90;;
13202;SDS011;6666;51.626;7.530;2023-07-20T03:15:08;13.40;;;7.30;;
13202;SDS011;6666;51.626;7.530;2023-07-20T03:17:39;11.77;;;6.75;;
13202;SDS011;6666;51.626;7.530;2023-07-20T03:20:08;11.50;;;7.00;;
13202;SDS011;6666;51.626;7.530;2023-07-20T03:22:39;11.07;;;6.30;;
13202;SDS011;6666;51.626;7.530;2023-07-20T03:25:08;9.93;;;6.40;;
13202;SDS011;6666;51.626;7.530;2023-07-20T03:27:36;11.52;;;7.10;;
13202;SDS011;6666;51.626;7.530;2023-07-20T03:30:05;8.73;;;6.53;;
13202;SDS011;6666;51.626;7.530;2023-07-20T03:32:36;10.65;;;6.32;;
13202;SDS011;6666;51.626;7.530;2023-07-20T03:35:07;10.48;;;6.28;;
13202;SDS011;6666;51.626;7.530;2023-07-20T03:37:35;14.13;;;6.50;;
13202;SDS011;6666;51.626;7.530;2023-07-20T03:40:05;11.50;;;6.30;;
13202;SDS011;6666;51.626;7.530;2023-07-20T03:42:34;10.20;;;6.20;;
13202;SDS011;6666;51.626;7.530;2023-07-20T03:45:02;11.00;;;7.20;;
13202;SDS011;6666;51.626;7.530;2023-07-20T03:47:32;9.23;;;6.63;;
13202;SDS011;6666;51.626;7.530;2023-07-20T03:50:01;10.82;;;6.63;;
13202;SDS011;6666;51.626;7.530;2023-07-20T03:52:33;10.23;;;6.97;;
13202;SDS011;6666;51.626;7.530;2023-07-20T03:55:01;11.10;;;6.70;;
13202;SDS011;6666;51.626;7.530;2023-07-20T03:57:29;9.38;;;7.07;;
13202;SDS011;6666;51.626;7.530;2023-07-20T03:59:58;15.35;;;8.48;;
13202;SDS011;6666;51.626;7.530;2023-07-20T04:02:27;10.95;;;6.60;;
13202;SDS011;6666;51.626;7.530;2023-07-20T04:04:55;11.05;;;7.22;;
13202;SDS011;6666;51.626;7.530;2023-07-20T04:07:23;10.63;;;7.23;;
13202;SDS011;6666;51.626;7.530;2023-07-20T04:09:53;9.40;;;6.95;;
13202;SDS011;6666;51.626;7.530;2023-07-20T04:12:21;11.02;;;7.47;;
13202;SDS011;6666;51.626;7.530;2023-07-20T04:14:49;10.40;;;7.15;;
13202;SDS011;6666;51.626;7.530;2023-07-20T04:17:18;11.25;;;7.10;;
13202;SDS011;6666;51.626;7.530;2023-07-20T04:19:46;10.55;;;7.28;;
13202;SDS011;6666;51.626;7.530;2023-07-20T04:22:14;15.35;;;8.50;;
13202;SDS011;6666;51.626;7.530;2023-07-20T04:24:42;11.13;;;8.15;;
13202;SDS011;6666;51.626;7.530;2023-07-20T04:27:12;17.83;;;7.87;;
13202;SDS011;6666;51.626;7.530;2023-07-20T04:29:40;11.88;;;8.55;;
13202;SDS011;6666;51.626;7.530;2023-07-20T04:32:08;13.85;;;8.57;;
13202;SDS011;6666;51.626;7.530;2023-07-20T04:34:36;15.60;;;8.18;;
13202;SDS011;6666;51.626;7.530;2023-07-20T04:37:06;12.98;;;8.73;;
13202;SDS011;6666;51.626;7.530;2023-07-20T04:39:34;15.43;;;8.73;;
13202;SDS011;6666;51.626;7.530;2023-07-20T04:42:07;13.10;;;7.30;;
13202;SDS011;6666;51.626;7.530;2023-07-20T04:44:37;12.10;;;7.90;;
13202;SDS011;6666;51.626;7.530;2023-07-20T04:47:06;10.63;;;7.25;;
13202;SDS011;6666;51.626;7.530;2023-07-20T04:49:37;12.70;;;7.23;;
13202;SDS011;6666;51.626;7.530;2023-07-20T04:52:06;10.13;;;6.90;;
13202;SDS011;6666;51.626;7.530;2023-07-20T04:54:35;10.43;;;6.82;;
13202;SDS011;6666;51.626;7.530;2023-07-20T04:57:05;11.95;;;7.15;;
13202;SDS011;6666;51.626;7.530;2023-07-20T04:59:45;10.60;;;6.80;;
13202;SDS011;6666;51.626;7.530;2023-07-20T05:02:14;6.32;;;5.32;;
13202;SDS011;6666;51.626;7.530;2023-07-20T05:04:42;6.70;;;4.67;;
13202;SDS011;6666;51.626;7.530;2023-07-20T05:07:10;7.00;;;4.78;;
13202;SDS011;6666;51.626;7.530;2023-07-20T05:09:38;5.57;;;4.97;;
13202;SDS011;6666;51.626;7.530;2023-07-20T05:12:07;6.90;;;4.40;;
13202;SDS011;6666;51.626;7.530;2023-07-20T05:14:36;5.60;;;4.60;;
13202;SDS011;6666;51.626;7.530;2023-07-20T05:17:05;10.18;;;4.60;;
13202;SDS011;6666;51.626;7.530;2023-07-20T05:19:34;6.82;;;4.63;;
13202;SDS011;6666;51.626;7.530;2023-07-20T05:22:02;6.40;;;4.70;;
13202;SDS011;6666;51.626;7.530;2023-07-20T05:24:32;5.68;;;4.70;;
13202;SDS011;6666;51.626;7.530;2023-07-20T05:27:00;7.32;;;4.93;;
13202;SDS011;6666;51.626;7.530;2023-07-20T05:29:28;7.18;;;5.57;;
13202;SDS011;6666;51.626;7.530;2023-07-20T05:31:56;8.43;;;6.10;;
13202;SDS011;6666;51.626;7.530;2023-07-20T05:34:25;9.25;;;6.10;;
13202;SDS011;6666;51.626;7.530;2023-07-20T05:36:54;9.00;;;6.60;;
13202;SDS011;6666;51.626;7.530;2023-07-20T05:39:23;6.50;;;5.22;;
13202;SDS011;6666;51.626;7.530;2023-07-20T05:41:51;7.53;;;5.23;;
13202;SDS011;6666;51.626;7.530;2023-07-20T05:44:19;8.35;;;6.40;;
13202;SDS011;6666;51.626;7.530;2023-07-20T05:46:47;8.75;;;5.53;;
13202;SDS011;6666;51.626;7.530;2023-07-20T05:49:23;7.93;;;5.25;;
13202;SDS011;6666;51.626;7.530;2023-07-20T05:51:53;7.72;;;4.70;;
13202;SDS011;6666;51.626;7.530;2023-07-20T05:54:21;5.00;;;4.47;;
13202;SDS011;6666;51.626;7.530;2023-07-20T05:56:51;7.65;;;4.18;;
13202;SDS011;6666;51.626;7.530;2023-07-20T05:59:19;6.80;;;4.20;;
13202;SDS011;6666;51.626;7.530;2023-07-20T06:01:47;7.22;;;4.00;;
13202;SDS011;6666;51.626;7.530;2023-07-20T06:04:16;6.45;;;4.43;;
13202;SDS011;6666;51.626;7.530;2023-07-20T06:06:45;4.35;;;3.70;;
13202;SDS011;6666;51.626;7.530;2023-07-20T06:09:14;3.88;;;3.28;;
13202;SDS011;6666;51.626;7.530;2023-07-20T06:11:42;4.70;;;3.70;;
13202;SDS011;6666;51.626;7.530;2023-07-20T06:14:10;4.90;;;3.40;;
13202;SDS011;6666;51.626;7.530;2023-07-20T06:16:38;4.35;;;3.80;;
13202;SDS011;6666;51.626;7.530;2023-07-20T06:19:07;4.40;;;4.00;;
13202;SDS011;6666;51.626;7.530;2023-07-20T06:21:37;6.90;;;3.50;;
13202;SDS011;6666;51.626;7.530;2023-07-20T06:24:07;5.83;;;3.60;;
13202;SDS011;6666;51.626;7.530;2023-07-20T06:26:35;6.30;;;3.40;;
13202;SDS011;6666;51.626;7.530;2023-07-20T06:29:05;3.35;;;2.97;;
13202;SDS011;6666;51.626;7.530;2023-07-20T06:31:33;4.30;;;3.45;;
13202;SDS011;6666;51.626;7.530;2023-07-20T06:34:02;4.18;;;3.40;;
13202;SDS011;6666;51.626;7.530;2023-07-20T06:36:30;4.10;;;3.28;;
13202;SDS011;6666;51.626;7.530;2023-07-20T06:38:58;4.25;;;3.22;;
13202;SDS011;6666;51.626;7.530;2023-07-20T06:41:31;4.93;;;3.53;;
13202;SDS011;6666;51.626;7.530;2023-07-20T06:44:02;3.73;;;3.30;;
13202;SDS011;6666;51.626;7.530;2023-07-20T06:46:31;3.88;;;3.20;;
13202;SDS011;6666;51.626;7.530;2023-07-20T06:48:59;4.88;;;3.10;;
13202;SDS011;6666;51.626;7.530;2023-07-20T06:51:30;5.05;;;2.67;;
13202;SDS011;6666;51.626;7.530;2023-07-20T06:53:58;2.60;;;2.40;;
13202;SDS011;6666;51.626;7.530;2023-07-20T06:56:26;4.97;;;2.50;;
13202;SDS011;6666;51.626;7.530;2023-07-20T06:58:59;3.97;;;2.27;;
13202;SDS011;6666;51.626;7.530;2023-07-20T07:01:29;4.38;;;2.30;;
13202;SDS011;6666;51.626;7.530;2023-07-20T07:03:57;3.67;;;2.20;;
13202;SDS011;6666;51.626;7.530;2023-07-20T07:06:25;4.30;;;1.60;;
13202;SDS011;6666;51.626;7.530;2023-07-20T07:08:54;1.98;;;1.85;;
13202;SDS011;6666;51.626;7.530;2023-07-20T07:11:22;1.80;;;1.70;;
13202;SDS011;6666;51.626;7.530;2023-07-20T07:13:51;4.60;;;1.45;;
13202;SDS011;6666;51.626;7.530;2023-07-20T07:16:24;5.97;;;2.00;;
13202;SDS011;6666;51.626;7.530;2023-07-20T07:18:53;5.50;;;1.67;;
13202;SDS011;6666;51.626;7.530;2023-07-20T07:21:25;1.80;;;1.70;;
13202;SDS011;6666;51.626;7.530;2023-07-20T07:23:54;1.80;;;1.60;;
13202;SDS011;6666;51.626;7.530;2023-07-20T07:26:24;2.40;;;1.60;;
13202;SDS011;6666;51.626;7.530;2023-07-20T07:28:52;1.90;;;1.20;;
13202;SDS011;6666;51.626;7.530;2023-07-20T07:31:20;1.10;;;0.93;;
13202;SDS011;6666;51.626;7.530;2023-07-20T07:33:51;1.20;;;1.00;;
13202;SDS011;6666;51.626;7.530;2023-07-20T07:36:19;2.73;;;1.20;;
13202;SDS011;6666;51.626;7.530;2023-07-20T07:38:47;1.40;;;1.30;;
13202;SDS011;6666;51.626;7.530;2023-07-20T07:41:35;1.17;;;1.05;;
13202;SDS011;6666;51.626;7.530;2023-07-20T07:44:04;2.08;;;1.30;;
13202;SDS011;6666;51.626;7.530;2023-07-20T07:46:32;2.17;;;1.30;;
13202;SDS011;6666;51.626;7.530;2023-07-20T07:49:02;1.80;;;1.50;;
13202;SDS011;6666;51.626;7.530;2023-07-20T07:51:30;13.27;;;2.35;;
13202;SDS011;6666;51.626;7.530;2023-07-20T07:53:58;3.00;;;1.42;;
13202;SDS011;6666;51.626;7.530;2023-07-20T07:56:26;3.35;;;1.60;;
13202;SDS011;6666;51.626;7.530;2023-07-20T07:58:55;3.25;;;1.45;;
13202;SDS011;6666;51.626;7.530;2023-07-20T08:01:23;1.90;;;1.50;;
13202;SDS011;6666;51.626;7.530;2023-07-20T08:03:51;1.85;;;1.40;;
13202;SDS011;6666;51.626;7.530;2023-07-20T08:06:21;1.90;;;1.40;;
13202;SDS011;6666;51.626;7.530;2023-07-20T08:08:50;3.80;;;1.50;;
13202;SDS011;6666;51.626;7.530;2023-07-20T08:11:18;2.00;;;1.30;;
13202;SDS011;6666;51.626;7.530;2023-07-20T08:13:47;1.70;;;1.30;;
13202;SDS011;6666;51.626;7.530;2023-07-20T08:16:15;1.50;;;1.30;;
13202;SDS011;6666;51.626;7.530;2023-07-20T08:18:43;1.27;;;1.17;;
13202;SDS011;6666;51.626;7.530;2023-07-20T08:21:12;3.20;;;0.90;;
13202;SDS011;6666;51.626;7.530;2023-07-20T08:23:41;2.30;;;1.20;;
13202;SDS011;6666;51.626;7.530;2023-07-20T08:26:09;2.20;;;1.20;;
13202;SDS011;6666;51.626;7.530;2023-07-20T08:28:38;1.10;;;1.00;;
13202;SDS011;6666;51.626;7.530;2023-07-20T08:31:06;1.60;;;1.00;;
13202;SDS011;6666;51.626;7.530;2023-07-20T08:33:34;2.40;;;1.00;;
13202;SDS011;6666;51.626;7.530;2023-07-20T08:36:02;1.50;;;1.10;;
13202;SDS011;6666;51.626;7.530;2023-07-20T08:38:32;0.82;;;0.70;;
13202;SDS011;6666;51.626;7.530;2023-07-20T08:41:02;1.90;;;0.60;;
13202;SDS011;6666;51.626;7.530;2023-07-20T08:43:30;3.60;;;0.90;;
13202;SDS011;6666;51.626;7.530;2023-07-20T08:46:01;1.20;;;0.80;;
13202;SDS011;6666;51.626;7.530;2023-07-20T08:48:30;0.90;;;0.70;;
13202;SDS011;6666;51.626;7.530;2023-07-20T08:50:59;2.30;;;1.10;;
13202;SDS011;6666;51.626;7.530;2023-07-20T08:53:29;1.10;;;0.80;;
13202;SDS011;6666;51.626;7.530;2023-07-20T08:55:59;1.10;;;0.70;;
13202;SDS011;6666;51.626;7.530;2023-07-20T08:58:30;2.20;;;0.90;;
13202;SDS011;6666;51.626;7.530;2023-07-20T09:00:58;1.20;;;0.70;;
13202;SDS011;6666;51.626;7.530;2023-07-20T09:03:28;1.20;;;0.70;;
13202;SDS011;6666;51.626;7.530;2023-07-20T09:05:56;1.10;;;0.70;;
13202;SDS011;6666;51.626;7.530;2023-07-20T09:08:25;1.10;;;0.70;;
13202;SDS011;6666;51.626;7.530;2023-07-20T09:10:53;2.20;;;0.70;;
13202;SDS011;6666;51.626;7.530;2023-07-20T09:13:21;1.13;;;0.80;;
13202;SDS011;6666;51.626;7.530;2023-07-20T09:15:54;1.13;;;0.73;;
13202;SDS011;6666;51.626;7.530;2023-07-20T09:18:25;0.90;;;0.77;;
13202;SDS011;6666;51.626;7.530;2023-07-20T09:20:57;1.30;;;1.00;;
13202;SDS011;6666;51.626;7.530;2023-07-20T09:23:31;1.37;;;0.67;;
13202;SDS011;6666;51.626;7.530;2023-07-20T09:26:00;3.20;;;1.00;;
13202;SDS011;6666;51.626;7.530;2023-07-20T09:28:28;1.50;;;0.80;;
13202;SDS011;6666;51.626;7.530;2023-07-20T09:31:00;1.10;;;0.60;;
13202;SDS011;6666;51.626;7.530;2023-07-20T09:33:43;1.20;;;0.70;;
13202;SDS011;6666;51.626;7.530;2023-07-20T09:36:14;0.90;;;0.60;;
13202;SDS011;6666;51.626;7.530;2023-07-20T09:39:03;1.23;;;0.93;;
13202;SDS011;6666;51.626;7.530;2023-07-20T09:41:39;0.90;;;0.60;;
13202;SDS011;6666;51.626;7.530;2023-07-20T09:44:12;1.13;;;0.60;;
13202;SDS011;6666;51.626;7.530;2023-07-20T09:46:46;0.90;;;0.70;;
13202;SDS011;6666;51.626;7.530;2023-07-20T09:49:18;1.45;;;0.70;;
13202;SDS011;6666;51.626;7.530;2023-07-20T09:51:49;1.40;;;0.70;;
13202;SDS011;6666;51.626;7.530;2023-07-20T09:54:19;0.70;;;0.50;;
13202;SDS011;6666;51.626;7.530;2023-07-20T09:56:49;1.93;;;0.70;;
13202;SDS011;6666;51.626;7.530;2023-07-20T09:59:19;0.80;;;0.50;;
13202;SDS011;6666;51.626;7.530;2023-07-20T10:01:49;1.63;;;1.00;;
13202;SDS011;6666;51.626;7.530;2023-07-20T10:04:19;1.60;;;0.60;;
13202;SDS011;6666;51.626;7.530;2023-07-20T10:06:50;0.80;;;0.50;;
13202;SDS011;6666;51.626;7.530;2023-07-20T10:09:22;1.17;;;0.60;;
13202;SDS011;6666;51.626;7.530;2023-07-20T10:11:53;1.50;;;1.17;;
13202;SDS011;6666;51.626;7.530;2023-07-20T10:14:24;7.90;;;5.07;;
13202;SDS011;6666;51.626;7.530;2023-07-20T10:16:58;6.57;;;3.85;;
13202;SDS011;6666;51.626;7.530;2023-07-20T10:19:31;3.75;;;2.63;;
13202;SDS011;6666;51.626;7.530;2023-07-20T10:22:17;2.08;;;1.55;;
13202;SDS011;6666;51.626;7.530;2023-07-20T10:24:49;4.25;;;2.70;;
13202;SDS011;6666;51.626;7.530;2023-07-20T10:27:20;9.88;;;5.90;;
13202;SDS011;6666;51.626;7.530;2023-07-20T10:29:48;7.72;;;4.20;;
13202;SDS011;6666;51.626;7.530;2023-07-20T10:32:20;4.82;;;2.17;;
13202;SDS011;6666;51.626;7.530;2023-07-20T10:34:50;3.40;;;2.30;;
13202;SDS011;6666;51.626;7.530;2023-07-20T10:40:29;1.27;;;0.98;;
13202;SDS011;6666;51.626;7.530;2023-07-20T10:43:02;1.23;;;0.80;;
13202;SDS011;6666;51.626;7.530;2023-07-20T10:45:39;1.60;;;0.90;;
13202;SDS011;6666;51.626;7.530;2023-07-20T10:48:17;0.75;;;0.50;;
13202;SDS011;6666;51.626;7.530;2023-07-20T10:53:36;1.70;;;1.00;;
13202;SDS011;6666;51.626;7.530;2023-07-20T10:56:08;1.55;;;0.60;;
13202;SDS011;6666;51.626;7.530;2023-07-20T10:58:39;1.30;;;0.60;;
13202;SDS011;6666;51.626;7.530;2023-07-20T11:01:09;4.10;;;3.53;;
13202;SDS011;6666;51.626;7.530;2023-07-20T11:03:43;1.85;;;0.98;;
13202;SDS011;6666;51.626;7.530;2023-07-20T11:06:29;1.90;;;1.20;;
13202;SDS011;6666;51.626;7.530;2023-07-20T11:09:05;1.30;;;1.10;;
13202;SDS011;6666;51.626;7.530;2023-07-20T11:11:38;0.90;;;0.80;;
13202;SDS011;6666;51.626;7.530;2023-07-20T11:14:07;1.40;;;0.80;;
13202;SDS011;6666;51.626;7.530;2023-07-20T11:16:37;6.57;;;4.40;;
13202;SDS011;6666;51.626;7.530;2023-07-20T11:19:13;2.17;;;1.30;;
13202;SDS011;6666;51.626;7.530;2023-07-20T11:22:03;0.80;;;0.70;;
13202;SDS011;6666;51.626;7.530;2023-07-20T11:24:34;1.00;;;0.70;;
13202;SDS011;6666;51.626;7.530;2023-07-20T11:27:05;0.80;;;0.60;;
13202;SDS011;6666;51.626;7.530;2023-07-20T11:29:34;0.70;;;0.60;;
13202;SDS011;6666;51.626;7.530;2023-07-20T11:32:03;19.42;;;12.95;;
13202;SDS011;6666;51.626;7.530;2023-07-20T11:34:34;1.52;;;1.40;;
13202;SDS011;6666;51.626;7.530;2023-07-20T11:37:02;0.80;;;0.60;;
13202;SDS011;6666;51.626;7.530;2023-07-20T11:39:35;0.90;;;0.60;;
13202;SDS011;6666;51.626;7.530;2023-07-20T11:42:04;1.35;;;0.60;;
13202;SDS011;6666;51.626;7.530;2023-07-20T11:44:33;1.98;;;0.70;;
13202;SDS011;6666;51.626;7.530;2023-07-20T11:47:03;1.60;;;0.60;;
13202;SDS011;6666;51.626;7.530;2023-07-20T11:49:37;1.20;;;0.57;;
13202;SDS011;6666;51.626;7.530;2023-07-20T11:52:08;1.15;;;0.73;;
13202;SDS011;6666;51.626;7.530;2023-07-20T11:54:37;0.80;;;0.60;;
13202;SDS011;6666;51.626;7.530;2023-07-20T11:57:15;1.00;;;0.68;;
13202;SDS011;6666;51.626;7.530;2023-07-20T11:59:52;1.10;;;0.70;;
13202;SDS011;6666;51.626;7.530;2023-07-20T12:02:22;1.07;;;0.70;;
13202;SDS011;6666;51.626;7.530;2023-07-20T12:04:52;1.00;;;0.70;;
13202;SDS011;6666;51.626;7.530;2023-07-20T12:07:22;1.73;;;0.85;;
13202;SDS011;6666;51.626;7.530;2023-07-20T12:10:02;1.90;;;0.60;;
13202;SDS011;6666;51.626;7.530;2023-07-20T12:12:31;0.90;;;0.80;;
13202;SDS011;6666;51.626;7.530;2023-07-20T12:15:13;1.20;;;0.60;;
13202;SDS011;6666;51.626;7.530;2023-07-20T12:17:42;1.00;;;0.70;;
13202;SDS011;6666;51.626;7.530;2023-07-20T12:20:12;1.00;;;0.60;;
13202;SDS011;6666;51.626;7.530;2023-07-20T12:22:40;1.30;;;0.60;;
13202;SDS011;6666;51.626;7.530;2023-07-20T12:25:11;0.90;;;0.70;;
13202;SDS011;6666;51.626;7.530;2023-07-20T12:27:39;1.50;;;0.70;;
13202;SDS011;6666;51.626;7.530;2023-07-20T12:30:08;1.20;;;0.80;;
13202;SDS011;6666;51.626;7.530;2023-07-20T12:32:36;0.70;;;0.60;;
13202;SDS011;6666;51.626;7.530;2023-07-20T12:35:05;1.40;;;0.80;;
13202;SDS011;6666;51.626;7.530;2023-07-20T12:37:35;1.10;;;0.80;;
13202;SDS011;6666;51.626;7.530;2023-07-20T12:40:03;1.80;;;1.00;;
13202;SDS011;6666;51.626;7.530;2023-07-20T12:42:37;3.70;;;2.60;;
13202;SDS011;6666;51.626;7.530;2023-07-20T12:45:06;3.85;;;2.67;;
13202;SDS011;6666;51.626;7.530;2023-07-20T12:47:34;1.30;;;0.77;;
13202;SDS011;6666;51.626;7.530;2023-07-20T12:50:03;1.08;;;0.68;;
13202;SDS011;6666;51.626;7.530;2023-07-20T12:52:35;0.90;;;0.60;;
13202;SDS011;6666;51.626;7.530;2023-07-20T12:55:05;4.00;;;1.25;;
13202;SDS011;6666;51.626;7.530;2023-07-20T12:57:34;10.27;;;7.07;;
13202;SDS011;6666;51.626;7.530;2023-07-20T13:00:03;3.70;;;2.63;;
13202;SDS011;6666;51.626;7.530;2023-07-20T13:02:34;1.10;;;0.67;;
13202;SDS011;6666;51.626;7.530;2023-07-20T13:05:03;2.00;;;1.50;;
13202;SDS011;6666;51.626;7.530;2023-07-20T13:07:32;1.10;;;0.82;;
13202;SDS011;6666;51.626;7.530;2023-07-20T13:10:05;3.00;;;1.70;;
13202;SDS011;6666;51.626;7.530;2023-07-20T13:12:34;1.92;;;0.80;;
13202;SDS011;6666;51.626;7.530;2023-07-20T13:15:04;1.15;;;0.60;;
13202;SDS011;6666;51.626;7.530;2023-07-20T13:17:33;0.80;;;0.60;;
13202;SDS011;6666;51.626;7.530;2023-07-20T13:20:02;1.00;;;0.70;;
13202;SDS011;6666;51.626;7.530;2023-07-20T13:22:31;1.13;;;0.80;;
13202;SDS011;6666;51.626;7.530;2023-07-20T13:24:59;0.80;;;0.60;;
13202;SDS011;6666;51.626;7.530;2023-07-20T13:27:29;1.88;;;0.82;;
13202;SDS011;6666;51.626;7.530;2023-07-20T13:29:58;1.70;;;1.05;;
13202;SDS011;6666;51.626;7.530;2023-07-20T13:32:29;4.32;;;0.80;;
13202;SDS011;6666;51.626;7.530;2023-07-20T13:34:59;2.80;;;0.80;;
13202;SDS011;6666;51.626;7.530;2023-07-20T13:37:28;2.22;;;0.60;;
13202;SDS011;6666;51.626;7.530;2023-07-20T13:39:56;1.10;;;0.60;;
13202;SDS011;6666;51.626;7.530;2023-07-20T13:42:24;0.90;;;0.60;;
13202;SDS011;6666;51.626;7.530;2023-07-20T13:44:54;1.20;;;0.60;;
13202;SDS011;6666;51.626;7.530;2023-07-20T13:47:22;1.20;;;0.80;;
13202;SDS011;6666;51.626;7.530;2023-07-20T13:49:51;1.13;;;0.95;;
13202;SDS011;6666;51.626;7.530;2023-07-20T13:52:30;1.10;;;0.90;;
13202;SDS011;6666;51.626;7.530;2023-07-20T13:55:01;0.80;;;0.60;;
13202;SDS011;6666;51.626;7.530;2023-07-20T13:57:31;1.17;;;0.60;;
13202;SDS011;6666;51.626;7.530;2023-07-20T14:00:02;1.50;;;1.20;;
13202;SDS011;6666;51.626;7.530;2023-07-20T14:02:38;2.92;;;2.25;;
13202;SDS011;6666;51.626;7.530;2023-07-20T14:05:09;2.53;;;1.10;;
13202;SDS011;6666;51.626;7.530;2023-07-20T14:07:40;2.20;;;1.10;;
13202;SDS011;6666;51.626;7.530;2023-07-20T14:10:09;0.75;;;0.52;;
13202;SDS011;6666;51.626;7.530;2023-07-20T14:12:40;0.80;;;0.50;;
13202;SDS011;6666;51.626;7.530;2023-07-20T14:15:11;3.47;;;0.90;;
13202;SDS011;6666;51.626;7.530;2023-07-20T14:17:39;2.67;;;2.13;;
13202;SDS011;6666;51.626;7.530;2023-07-20T14:20:07;6.80;;;4.80;;
13202;SDS011;6666;51.626;7.530;2023-07-20T14:22:39;1.00;;;0.73;;
13202;SDS011;6666;51.626;7.530;2023-07-20T14:25:08;2.20;;;0.60;;
13202;SDS011;6666;51.626;7.530;2023-07-20T14:27:36;0.88;;;0.52;;
13202;SDS011;6666;51.626;7.530;2023-07-20T14:30:05;0.85;;;0.60;;
13202;SDS011;6666;51.626;7.530;2023-07-20T14:32:36;1.00;;;0.60;;
13202;SDS011;6666;51.626;7.530;2023-07-20T14:35:05;2.60;;;0.60;;
13202;SDS011;6666;51.626;7.530;2023-07-20T14:37:36;0.77;;;0.60;;
13202;SDS011;6666;51.626;7.530;2023-07-20T14:40:05;1.00;;;0.70;;
13202;SDS011;6666;51.626;7.530;2023-07-20T14:42:34;0.80;;;0.60;;
13202;SDS011;6666;51.626;7.530;2023-07-20T14:45:03;1.40;;;0.50;;
13202;SDS011;6666;51.626;7.530;2023-07-20T14:47:33;0.90;;;0.60;;
13202;SDS011;6666;51.626;7.530;2023-07-20T14:50:03;0.80;;;0.50;;
13202;SDS011;6666;51.626;7.530;2023-07-20T14:52:33;0.80;;;0.60;;
13202;SDS011;6666;51.626;7.530;2023-07-20T14:55:01;0.85;;;0.60;;
13202;SDS011;6666;51.626;7.530;2023-07-20T14:57:29;0.80;;;0.60;;
13202;SDS011;6666;51.626;7.530;2023-07-20T14:59:57;2.00;;;0.70;;
13202;SDS011;6666;51.626;7.530;2023-07-20T15:02:25;5.00;;;0.80;;
13202;SDS011;6666;51.626;7.530;2023-07-20T15:04:53;1.67;;;0.70;;
13202;SDS011;6666;51.626;7.530;2023-07-20T15:07:24;2.70;;;1.05;;
13202;SDS011;6666;51.626;7.530;2023-07-20T15:09:52;1.20;;;0.80;;
13202;SDS011;6666;51.626;7.530;2023-07-20T15:12:21;0.95;;;0.68;;
13202;SDS011;6666;51.626;7.530;2023-07-20T15:14:49;1.40;;;0.70;;
13202;SDS011;6666;51.626;7.530;2023-07-20T15:17:30;11.95;;;7.47;;
13202;SDS011;6666;51.626;7.530;2023-07-20T15:19:58;1.40;;;1.30;;
13202;SDS011;6666;51.626;7.530;2023-07-20T15:22:28;1.60;;;1.20;;
13202;SDS011;6666;51.626;7.530;2023-07-20T15:24:57;1.45;;;0.90;;